createdAt,value
2023-01-04T00:00:31.999Z,101569.19
2023-01-04T00:02:58.498Z,101561.72
2023-01-04T00:05:24.833Z,101553.16
2023-01-04T00:07:51.141Z,101555.66
2023-01-04T00:10:17.467Z,101546.50
2023-01-04T00:12:43.771Z,101548.16
2023-01-04T00:15:10.110Z,101553.97
2023-01-04T00:17:36.412Z,101550.66
2023-01-04T00:20:02.799Z,101553.66
2023-01-04T00:22:29.107Z,101548.13
2023-01-04T00:24:55.401Z,101533.16
2023-01-04T00:27:21.710Z,101537.88
2023-01-04T00:29:48.023Z,101535.91
2023-01-04T00:32:14.337Z,101540.91
2023-01-04T00:34:40.655Z,101535.06
2023-01-04T00:37:07.560Z,101537.31
2023-01-04T00:39:33.881Z,101530.12
2023-01-04T00:42:05.376Z,101530.94
2023-01-04T00:44:31.771Z,101536.19
2023-01-04T00:46:58.137Z,101533.97
2023-01-04T00:49:24.516Z,101520.72
2023-01-04T00:51:50.892Z,101522.41
2023-01-04T00:54:17.193Z,101515.78
2023-01-04T00:56:43.636Z,101518.53
2023-01-04T00:59:09.959Z,101518.47
2023-01-04T01:01:36.527Z,101509.62
2023-01-04T01:04:03.085Z,101516.50
2023-01-04T01:06:29.527Z,101508.50
2023-01-04T01:08:55.889Z,101514.56
2023-01-04T01:11:22.198Z,101504.00
2023-01-04T01:13:48.535Z,101505.09
2023-01-04T01:16:14.989Z,101502.31
2023-01-04T01:18:41.429Z,101498.41
2023-01-04T01:21:07.768Z,101484.81
2023-01-04T01:23:34.076Z,101477.13
2023-01-04T01:26:00.407Z,101476.00
2023-01-04T01:28:26.723Z,101489.75
2023-01-04T01:30:53.085Z,101496.66
2023-01-04T01:33:19.486Z,101489.00
2023-01-04T01:35:45.830Z,101476.84
2023-01-04T01:38:12.149Z,101493.66
2023-01-04T01:40:38.495Z,101487.25
2023-01-04T01:43:04.799Z,101484.25
2023-01-04T01:45:31.154Z,101478.72
2023-01-04T01:47:57.467Z,101472.09
2023-01-04T01:50:24.010Z,101468.78
2023-01-04T01:52:50.606Z,101481.16
2023-01-04T01:55:17.747Z,101467.94
2023-01-04T01:57:44.130Z,101462.34
2023-01-04T02:00:10.480Z,101451.53
2023-01-04T02:02:36.974Z,101447.44
2023-01-04T02:05:03.476Z,101452.31
2023-01-04T02:07:29.788Z,101454.59
2023-01-04T02:09:56.173Z,101453.97
2023-01-04T02:12:22.486Z,101456.25
2023-01-04T02:14:48.804Z,101456.53
2023-01-04T02:17:15.117Z,101452.41
2023-01-04T02:19:41.433Z,101446.59
2023-01-04T02:22:07.748Z,101444.09
2023-01-04T02:24:34.049Z,101438.59
2023-01-04T02:27:00.385Z,101435.84
2023-01-04T02:29:26.746Z,101432.25
2023-01-04T02:31:53.114Z,101433.37
2023-01-04T02:34:19.502Z,101427.31
2023-01-04T02:36:45.829Z,101426.22
2023-01-04T02:39:12.201Z,101412.09
2023-01-04T02:41:38.570Z,101412.38
2023-01-04T02:44:23.556Z,101408.28
2023-01-04T02:46:49.978Z,101403.00
2023-01-04T02:49:35.221Z,101400.53
2023-01-04T02:52:01.540Z,101388.34
2023-01-04T02:54:30.117Z,101392.75
2023-01-04T02:57:02.722Z,101382.28
2023-01-04T02:59:31.677Z,101377.56
2023-01-04T03:02:17.051Z,101376.78
2023-01-04T03:05:02.405Z,101370.94
2023-01-04T03:07:28.721Z,101372.28
2023-01-04T03:09:55.048Z,101362.94
2023-01-04T03:12:33.723Z,101358.50
2023-01-04T03:15:00.563Z,101354.38
2023-01-04T03:17:26.898Z,101346.66
2023-01-04T03:19:55.259Z,101346.94
2023-01-04T03:22:40.624Z,101346.63
2023-01-04T03:25:25.718Z,101334.78
2023-01-04T03:28:10.620Z,101323.47
2023-01-04T03:30:55.749Z,101320.94
2023-01-04T03:33:40.971Z,101318.75
2023-01-04T03:36:07.310Z,101311.53
2023-01-04T03:38:52.334Z,101320.09
2023-01-04T03:41:37.616Z,101307.94
2023-01-04T03:44:22.824Z,101301.63
2023-01-04T03:47:08.013Z,101304.06
2023-01-04T03:49:34.350Z,101298.56
2023-01-04T03:52:00.670Z,101286.69
2023-01-04T03:54:27.033Z,101280.66
2023-01-04T03:56:53.366Z,101271.25
2023-01-04T03:59:22.811Z,101274.00
2023-01-04T04:01:49.225Z,101262.41
2023-01-04T04:04:34.393Z,101263.56
2023-01-04T04:07:19.428Z,101256.38
2023-01-04T04:09:45.752Z,101247.28
2023-01-04T04:12:12.063Z,101236.78
2023-01-04T04:14:38.395Z,101238.16
2023-01-04T04:17:04.729Z,101233.72
2023-01-04T04:19:31.055Z,101227.66
2023-01-04T04:21:57.383Z,101232.09
2023-01-04T04:24:24.575Z,101230.16
2023-01-04T04:26:50.976Z,101225.44
2023-01-04T04:29:18.037Z,101227.97
2023-01-04T04:31:44.394Z,101219.66
2023-01-04T04:34:10.757Z,101209.72
2023-01-04T04:36:37.069Z,101205.31
2023-01-04T04:39:03.382Z,101201.44
2023-01-04T04:41:38.848Z,101201.69
2023-01-04T04:44:05.169Z,101197.03
2023-01-04T04:46:31.505Z,101192.56
2023-01-04T04:48:57.823Z,101191.22
2023-01-04T04:51:24.130Z,101183.47
2023-01-04T04:53:50.536Z,101187.62
2023-01-04T04:56:16.908Z,101180.69
2023-01-04T04:58:43.231Z,101175.72
2023-01-04T05:01:09.670Z,101189.28
2023-01-04T05:03:36.087Z,101175.19
2023-01-04T05:06:02.461Z,101162.19
2023-01-04T05:08:28.835Z,101154.16
2023-01-04T05:10:55.140Z,101153.88
2023-01-04T05:13:21.462Z,101155.56
2023-01-04T05:15:47.942Z,101160.00
2023-01-04T05:18:14.316Z,101153.06
2023-01-04T05:20:40.626Z,101149.75
2023-01-04T05:23:06.954Z,101148.91
2023-01-04T05:25:33.273Z,101146.97
2023-01-04T05:27:59.625Z,101143.41
2023-01-04T05:30:44.860Z,101150.28
2023-01-04T05:33:11.236Z,101133.44
2023-01-04T05:35:37.589Z,101119.91
2023-01-04T05:38:03.920Z,101112.19
2023-01-04T05:40:30.256Z,101101.66
2023-01-04T05:42:56.576Z,101103.31
2023-01-04T05:45:22.872Z,101095.00
2023-01-04T05:47:49.181Z,101095.03
2023-01-04T05:50:15.507Z,101097.78
2023-01-04T05:52:41.834Z,101086.97
2023-01-04T05:55:08.144Z,101107.16
2023-01-04T05:57:34.496Z,101101.59
2023-01-04T06:00:00.828Z,101084.22
2023-01-04T06:02:27.315Z,101081.19
2023-01-04T06:04:58.676Z,101078.44
2023-01-04T06:07:25.817Z,101074.81
2023-01-04T06:09:52.208Z,101066.81
2023-01-04T06:12:18.520Z,101053.28
2023-01-04T06:14:44.922Z,101046.34
2023-01-04T06:17:11.345Z,101052.41
2023-01-04T06:19:37.753Z,101048.25
2023-01-04T06:22:04.329Z,101042.19
2023-01-04T06:24:30.717Z,101045.19
2023-01-04T06:26:57.044Z,101037.44
2023-01-04T06:29:23.340Z,101029.13
2023-01-04T06:31:49.700Z,101029.44
2023-01-04T06:34:16.006Z,101023.09
2023-01-04T06:36:42.358Z,101013.94
2023-01-04T06:39:08.815Z,101015.31
2023-01-04T06:41:35.167Z,101002.28
2023-01-04T06:44:01.504Z,100995.06
2023-01-04T06:46:27.877Z,100987.97
2023-01-04T06:48:54.249Z,100987.06
2023-01-04T06:51:20.606Z,100988.19
2023-01-04T06:53:46.951Z,100976.56
2023-01-04T06:56:13.290Z,100976.84
2023-01-04T06:58:39.617Z,100984.00
2023-01-04T07:01:05.993Z,100980.13
2023-01-04T07:03:32.330Z,100983.97
2023-01-04T07:05:58.667Z,100975.09
2023-01-04T07:08:25.032Z,100972.03
2023-01-04T07:10:51.358Z,100963.25
2023-01-04T07:13:17.727Z,100960.69
2023-01-04T07:15:44.146Z,100959.56
2023-01-04T07:18:10.608Z,100954.84
2023-01-04T07:20:36.990Z,100959.84
2023-01-04T07:23:03.337Z,100950.69
2023-01-04T07:25:29.688Z,100951.75
2023-01-04T07:27:56.025Z,100947.66
2023-01-04T07:30:22.397Z,100953.44
2023-01-04T07:32:48.702Z,100950.41
2023-01-04T07:35:15.026Z,100951.50
2023-01-04T07:37:41.393Z,100950.91
2023-01-04T07:40:07.724Z,100942.06
2023-01-04T07:42:34.035Z,100946.19
2023-01-04T07:45:00.441Z,100936.38
2023-01-04T07:47:26.750Z,100934.94
2023-01-04T07:49:53.111Z,100933.75
2023-01-04T07:52:19.492Z,100933.44
2023-01-04T07:54:45.868Z,100937.25
2023-01-04T07:57:12.206Z,100949.19
2023-01-04T07:59:38.525Z,100938.56
2023-01-04T08:02:05.121Z,100952.31
2023-01-04T08:04:35.193Z,100953.69
2023-01-04T08:07:01.895Z,100941.66
2023-01-04T08:09:28.212Z,100951.56
2023-01-04T08:11:54.517Z,100946.53
2023-01-04T08:14:21.060Z,100932.13
2023-01-04T08:16:47.368Z,100934.00
2023-01-04T08:19:13.683Z,100929.84
2023-01-04T08:21:40.020Z,100921.47
2023-01-04T08:24:06.385Z,100923.41
2023-01-04T08:26:32.720Z,100904.22
2023-01-04T08:28:59.083Z,100897.78
2023-01-04T08:31:25.455Z,100895.84
2023-01-04T08:33:51.819Z,100888.72
2023-01-04T08:36:22.711Z,100878.94
2023-01-04T08:39:01.421Z,100878.75
2023-01-04T08:41:56.616Z,100854.13
2023-01-04T08:44:14.608Z,100839.12
2023-01-04T08:46:41.047Z,100828.72
2023-01-04T08:49:07.441Z,100820.09
2023-01-04T08:51:33.757Z,100825.50
2023-01-04T08:54:00.145Z,100816.34
2023-01-04T08:56:26.516Z,100799.94
2023-01-04T08:58:52.905Z,100812.91
2023-01-04T09:01:19.279Z,100798.94
2023-01-04T09:03:45.677Z,100800.00
2023-01-04T09:06:11.995Z,100801.41
2023-01-04T09:08:38.303Z,100800.53
2023-01-04T09:11:04.712Z,100799.00
2023-01-04T09:13:31.038Z,100798.94
2023-01-04T09:15:57.429Z,100800.63
2023-01-04T09:18:32.611Z,100808.72
2023-01-04T09:21:00.846Z,100795.75
2023-01-04T09:23:29.027Z,100787.44
2023-01-04T09:25:55.354Z,100788.56
2023-01-04T09:28:21.673Z,100782.00
2023-01-04T09:30:48.038Z,100785.81
2023-01-04T09:33:14.365Z,100774.34
2023-01-04T09:35:40.708Z,100772.47
2023-01-04T09:38:07.027Z,100766.28
2023-01-04T09:40:33.376Z,100754.69
2023-01-04T09:43:21.364Z,100763.63
2023-01-04T09:45:45.994Z,100768.06
2023-01-04T09:48:12.346Z,100763.97
2023-01-04T09:50:38.683Z,100744.22
2023-01-04T09:53:05.023Z,100727.53
2023-01-04T09:55:37.159Z,100727.56
2023-01-04T09:58:06.544Z,100738.87
2023-01-04T10:00:34.507Z,100731.56
2023-01-04T10:03:02.751Z,100715.19
2023-01-04T10:05:29.254Z,100708.13
2023-01-04T10:07:55.629Z,100698.03
2023-01-04T10:10:22.009Z,100716.06
2023-01-04T10:12:48.412Z,100726.19
2023-01-04T10:15:15.037Z,100701.94
2023-01-04T10:23:13.950Z,100679.00
2023-01-04T10:25:40.304Z,100683.34
2023-01-04T10:28:06.628Z,100669.12
2023-01-04T10:30:32.965Z,100670.87
2023-01-04T10:32:59.295Z,100665.94
2023-01-04T10:35:25.665Z,100667.28
2023-01-04T10:37:51.966Z,100663.25
2023-01-04T10:40:18.449Z,100659.38
2023-01-04T10:42:44.941Z,100674.56
2023-01-04T10:45:11.298Z,100693.09
2023-01-04T10:47:37.622Z,100662.12
2023-01-04T10:50:03.984Z,100640.34
2023-01-04T10:52:30.304Z,100634.88
2023-01-04T10:54:56.710Z,100654.50
2023-01-04T10:57:23.033Z,100634.88
2023-01-04T10:59:49.357Z,100633.59
2023-01-04T11:02:15.788Z,100620.84
2023-01-04T11:04:42.268Z,100609.94
2023-01-04T11:07:08.633Z,100597.81
2023-01-04T11:09:35.270Z,100608.47
2023-01-04T11:12:01.605Z,100605.12
2023-01-04T11:14:33.301Z,100591.03
2023-01-04T11:17:03.244Z,100586.50
2023-01-04T11:19:29.589Z,100571.12
2023-01-04T11:21:58.363Z,100560.69
2023-01-04T11:24:33.232Z,100556.94
2023-01-04T11:26:59.978Z,100560.72
2023-01-04T11:29:26.354Z,100557.28
2023-01-04T11:31:53.620Z,100569.94
2023-01-04T11:34:20.139Z,100558.63
2023-01-04T11:36:46.474Z,100565.53
2023-01-04T11:39:12.803Z,100560.78
2023-01-04T11:41:39.171Z,100556.84
2023-01-04T11:44:05.592Z,100537.75
2023-01-04T11:46:32.097Z,100530.91
2023-01-04T11:48:58.547Z,100547.59
2023-01-04T11:51:28.876Z,100546.44
2023-01-04T11:53:55.226Z,100541.87
2023-01-04T11:56:21.607Z,100537.66
2023-01-04T11:58:47.916Z,100544.38
2023-01-04T12:01:14.402Z,100535.28
2023-01-04T12:03:40.781Z,100521.81
2023-01-04T12:06:07.101Z,100511.53
2023-01-04T12:08:33.469Z,100513.47
2023-01-04T12:10:59.861Z,100506.47
2023-01-04T12:13:26.175Z,100503.66
2023-01-04T12:15:52.499Z,100508.59
2023-01-04T12:18:18.900Z,100510.69
2023-01-04T12:20:45.245Z,100518.53
2023-01-04T12:23:11.548Z,100512.63
2023-01-04T12:25:37.863Z,100493.59
2023-01-04T12:28:04.220Z,100495.38
2023-01-04T12:30:30.539Z,100476.72
2023-01-04T12:32:56.941Z,100460.19
2023-01-04T12:35:23.256Z,100461.69
2023-01-04T12:37:49.825Z,100462.16
2023-01-04T12:40:16.236Z,100467.75
2023-01-04T12:42:42.561Z,100482.81
2023-01-04T12:45:08.904Z,100483.00
2023-01-04T12:47:54.043Z,100483.47
2023-01-04T12:50:20.667Z,100461.72
2023-01-04T12:53:19.858Z,100460.44
2023-01-04T12:55:33.300Z,100433.78
2023-01-04T12:57:59.637Z,100451.41
2023-01-04T13:00:25.948Z,100428.84
2023-01-04T13:02:52.833Z,100426.41
2023-01-04T13:08:05.674Z,100404.62
2023-01-04T13:10:32.757Z,100411.66
2023-01-04T13:12:59.100Z,100413.31
2023-01-04T13:15:25.432Z,100405.44
2023-01-04T13:17:51.821Z,100407.41
2023-01-04T13:20:18.205Z,100393.69
2023-01-04T13:22:44.572Z,100403.19
2023-01-04T13:25:10.893Z,100404.84
2023-01-04T13:27:37.257Z,100400.91
2023-01-04T13:30:04.365Z,100400.41
2023-01-04T13:32:30.715Z,100371.12
2023-01-04T13:34:59.701Z,100382.09
2023-01-04T13:37:26.056Z,100373.09
2023-01-04T13:39:52.389Z,100390.44
2023-01-04T13:42:18.699Z,100374.41
2023-01-04T13:45:18.077Z,100367.50
2023-01-04T13:47:31.346Z,100356.81
2023-01-04T13:49:57.662Z,100359.75
2023-01-04T13:52:50.509Z,100360.75
2023-01-04T13:55:10.394Z,100342.22
2023-01-04T13:57:36.709Z,100331.56
2023-01-04T14:00:03.029Z,100321.72
2023-01-04T14:02:31.449Z,100319.38
2023-01-04T14:04:57.882Z,100315.78
2023-01-04T14:07:24.682Z,100295.34
2023-01-04T14:09:51.547Z,100305.41
2023-01-04T14:12:17.896Z,100308.31
2023-01-04T14:14:44.236Z,100315.47
2023-01-04T14:17:10.581Z,100322.84
2023-01-04T14:19:36.915Z,100319.53
2023-01-04T14:22:03.235Z,100303.25
2023-01-04T14:25:07.837Z,100315.63
2023-01-04T14:27:15.864Z,100311.03
2023-01-04T14:29:42.176Z,100324.81
2023-01-04T14:32:08.498Z,100304.63
2023-01-04T14:34:34.819Z,100301.84
2023-01-04T14:37:01.129Z,100304.13
2023-01-04T14:39:27.520Z,100281.69
2023-01-04T14:41:53.933Z,100274.66
2023-01-04T14:44:24.377Z,100258.72
2023-01-04T14:46:50.745Z,100256.66
2023-01-04T14:49:17.452Z,100260.63
2023-01-04T14:51:43.917Z,100269.81
2023-01-04T14:54:10.903Z,100268.78
2023-01-04T14:56:37.221Z,100281.84
2023-01-04T14:59:03.572Z,100285.13
2023-01-04T15:01:30.068Z,100290.34
2023-01-04T15:03:56.694Z,100282.97
2023-01-04T15:06:23.110Z,100279.88
2023-01-04T15:08:50.244Z,100283.31
2023-01-04T15:11:17.865Z,100289.84
2023-01-04T15:13:44.511Z,100300.53
2023-01-04T15:16:10.954Z,100291.87
2023-01-04T15:18:37.343Z,100286.22
2023-01-04T15:21:03.693Z,100277.34
2023-01-04T15:23:30.069Z,100285.84
2023-01-04T15:25:56.614Z,100276.53
2023-01-04T15:28:24.330Z,100283.25
2023-01-04T15:30:50.799Z,100278.47
2023-01-04T15:33:17.233Z,100274.22
2023-01-04T15:35:43.551Z,100262.06
2023-01-04T15:38:15.985Z,100244.88
2023-01-04T15:40:44.236Z,100244.88
2023-01-04T15:43:10.747Z,100237.78
2023-01-04T15:45:37.160Z,100234.06
2023-01-04T15:48:03.571Z,100242.97
2023-01-04T15:50:30.390Z,100249.16
2023-01-04T15:52:57.187Z,100242.97
2023-01-04T15:55:23.563Z,100243.03
2023-01-04T15:57:50.053Z,100242.44
2023-01-04T16:00:16.420Z,100237.59
2023-01-04T16:02:42.853Z,100222.38
2023-01-04T16:05:09.323Z,100218.50
2023-01-04T16:07:36.707Z,100217.38
2023-01-04T16:10:03.422Z,100217.28
2023-01-04T16:12:42.110Z,100226.06
2023-01-04T16:15:08.430Z,100211.66
2023-01-04T16:17:34.759Z,100206.87
2023-01-04T16:20:01.071Z,100218.69
2023-01-04T16:22:27.397Z,100216.53
2023-01-04T16:25:10.895Z,100191.12
2023-01-04T16:27:39.452Z,100200.56
2023-01-04T16:30:05.937Z,100187.62
2023-01-04T16:32:32.385Z,100191.38
2023-01-04T16:34:58.774Z,100200.56
2023-01-04T16:37:25.089Z,100202.25
2023-01-04T16:40:08.150Z,100182.06
2023-01-04T16:42:35.145Z,100166.53
2023-01-04T16:45:01.536Z,100161.31
2023-01-04T16:47:27.902Z,100138.19
2023-01-04T16:49:54.452Z,100134.56
2023-01-04T16:52:20.948Z,100144.81
2023-01-04T16:54:47.316Z,100145.44
2023-01-04T16:57:13.666Z,100142.41
2023-01-04T16:59:40.084Z,100154.34
2023-01-04T17:02:06.485Z,100168.28
2023-01-04T17:04:32.884Z,100185.34
2023-01-04T17:06:59.209Z,100155.37
2023-01-04T17:09:25.589Z,100147.38
2023-01-04T17:14:49.079Z,100134.97
2023-01-04T17:17:22.509Z,100131.69
2023-01-04T17:19:48.826Z,100140.66
2023-01-04T17:22:15.156Z,100158.94
2023-01-04T17:24:41.474Z,100144.88
2023-01-04T17:27:07.798Z,100150.66
2023-01-04T17:29:34.114Z,100149.16
2023-01-04T17:32:00.477Z,100156.84
2023-01-04T17:34:26.881Z,100141.03
2023-01-04T17:36:53.247Z,100143.47
2023-01-04T17:39:21.036Z,100155.19
2023-01-04T17:41:47.478Z,100131.13
2023-01-04T17:44:13.804Z,100152.66
2023-01-04T17:46:40.170Z,100141.03
2023-01-04T17:49:23.873Z,100140.53
2023-01-04T17:51:54.527Z,100133.56
2023-01-04T17:54:21.353Z,100118.00
2023-01-04T17:56:47.698Z,100105.88
2023-01-04T17:59:14.084Z,100111.00
2023-01-04T18:01:40.590Z,100108.56
2023-01-04T18:04:06.952Z,100095.06
2023-01-04T18:06:33.336Z,100100.28
2023-01-04T18:08:59.654Z,100086.56
2023-01-04T18:11:25.977Z,100084.47
2023-01-04T18:13:53.253Z,100087.94
2023-01-04T18:16:24.302Z,100080.97
2023-01-04T18:18:51.326Z,100084.94
2023-01-04T18:21:27.950Z,100095.16
2023-01-04T18:24:34.066Z,100088.16
2023-01-04T18:27:10.594Z,100081.88
2023-01-04T18:29:27.952Z,100093.06
2023-01-04T18:31:54.349Z,100093.19
2023-01-04T18:34:20.993Z,100067.44
2023-01-04T18:36:47.310Z,100079.78
2023-01-04T18:39:13.683Z,100083.59
2023-01-04T18:41:40.011Z,100086.62
2023-01-04T18:44:31.361Z,100065.19
2023-01-04T18:46:52.935Z,100075.75
2023-01-04T18:49:19.266Z,100067.50
2023-01-04T18:51:45.610Z,100072.59
2023-01-04T18:54:11.947Z,100063.38
2023-01-04T18:56:39.515Z,100052.06
2023-01-04T18:59:05.816Z,100049.41
2023-01-04T19:01:32.169Z,100042.56
2023-01-04T19:03:58.510Z,100046.03
2023-01-04T19:06:24.917Z,100025.19
2023-01-04T19:08:56.280Z,100038.44
2023-01-04T19:11:24.497Z,100022.94
2023-01-04T19:13:52.441Z,100024.06
2023-01-04T19:16:18.886Z,100017.41
2023-01-04T19:18:45.236Z,100013.78
2023-01-04T19:21:11.567Z,100005.59
2023-01-04T19:23:38.107Z,100014.25
2023-01-04T19:26:04.424Z,100019.53
2023-01-04T19:28:30.730Z,100000.69
2023-01-04T19:30:57.184Z,100010.53
2023-01-04T19:33:23.529Z,99998.78
2023-01-04T19:35:49.925Z,99996.09
2023-01-04T19:38:16.394Z,99998.88
2023-01-04T19:40:42.817Z,99999.88
2023-01-04T19:43:09.166Z,99964.50
2023-01-04T19:45:35.489Z,99982.72
2023-01-04T19:48:01.793Z,99977.34
2023-01-04T19:50:28.130Z,99984.13
2023-01-04T19:52:54.437Z,99998.25
2023-01-04T19:55:20.779Z,99993.47
2023-01-04T19:57:47.101Z,99996.34
2023-01-04T20:00:13.412Z,99992.13
2023-01-04T20:02:39.834Z,99989.97
2023-01-04T20:05:07.049Z,99976.88
2023-01-04T20:07:33.372Z,99991.50
2023-01-04T20:09:59.710Z,99974.12
2023-01-04T20:12:26.073Z,99989.62
2023-01-04T20:14:52.427Z,99992.06
2023-01-04T20:17:18.849Z,99985.00
2023-01-04T20:19:45.166Z,99987.72
2023-01-04T20:22:11.532Z,99969.59
2023-01-04T20:24:37.863Z,99978.59
2023-01-04T20:27:04.217Z,99975.81
2023-01-04T20:29:30.591Z,99977.78
2023-01-04T20:31:56.900Z,99986.72
2023-01-04T20:34:23.251Z,99993.16
2023-01-04T20:36:49.575Z,99980.31
2023-01-04T20:39:15.891Z,100002.25
2023-01-04T20:42:02.218Z,99985.91
2023-01-04T20:44:28.590Z,99984.75
2023-01-04T20:46:54.950Z,99994.13
2023-01-04T20:49:21.904Z,99992.50
2023-01-04T20:51:48.256Z,100001.38
2023-01-04T20:54:14.617Z,100002.66
2023-01-04T20:56:40.934Z,99984.59
2023-01-04T20:59:07.283Z,99979.75
2023-01-04T21:01:33.708Z,99976.41
2023-01-04T21:04:00.239Z,99966.84
2023-01-04T21:06:26.565Z,99961.69
2023-01-04T21:08:54.876Z,99947.44
2023-01-04T21:11:21.435Z,99961.16
2023-01-04T21:13:51.236Z,99934.56
2023-01-04T21:16:17.553Z,99946.91
2023-01-04T21:18:43.976Z,99937.34
2023-01-04T21:21:10.297Z,99932.34
2023-01-04T21:23:38.308Z,99934.13
2023-01-04T21:26:04.642Z,99919.59
2023-01-04T21:28:30.936Z,99920.94
2023-01-04T21:30:57.257Z,99920.31
2023-01-04T21:33:28.416Z,99919.16
2023-01-04T21:35:54.731Z,99919.44
2023-01-04T21:38:21.067Z,99926.53
2023-01-04T21:40:47.391Z,99927.09
2023-01-04T21:43:13.740Z,99919.06
2023-01-04T21:45:40.062Z,99933.84
2023-01-04T21:48:06.449Z,99915.25
2023-01-04T21:50:32.783Z,99911.47
2023-01-04T21:52:59.127Z,99908.22
2023-01-04T21:55:30.846Z,99908.13
2023-01-04T21:57:58.861Z,99900.47
2023-01-04T22:00:25.267Z,99883.16
2023-01-04T22:02:51.700Z,99889.66
2023-01-04T22:05:18.087Z,99890.09
2023-01-04T22:07:44.468Z,99886.97
2023-01-04T22:10:10.845Z,99895.00
2023-01-04T22:12:37.221Z,99898.69
2023-01-04T22:15:03.535Z,99884.34
2023-01-04T22:17:29.871Z,99889.66
2023-01-04T22:19:56.205Z,99880.41
2023-01-04T22:22:22.524Z,99870.03
2023-01-04T22:24:48.861Z,99873.25
2023-01-04T22:27:15.186Z,99883.19
2023-01-04T22:29:41.515Z,99891.84
2023-01-04T22:32:07.951Z,99878.56
2023-01-04T22:34:34.256Z,99867.38
2023-01-04T22:37:00.611Z,99874.53
2023-01-04T22:39:26.986Z,99872.97
2023-01-04T22:41:53.299Z,99863.25
2023-01-04T22:44:19.627Z,99877.31
2023-01-04T22:46:46.162Z,99870.47
2023-01-04T22:49:12.533Z,99869.66
2023-01-04T22:51:40.846Z,99844.44
2023-01-04T22:54:07.256Z,99843.22
2023-01-04T22:56:33.572Z,99849.84
2023-01-04T22:58:59.920Z,99844.59
2023-01-04T23:01:26.358Z,99842.31
2023-01-04T23:03:52.964Z,99852.53
2023-01-04T23:06:19.476Z,99842.25
2023-01-04T23:08:45.809Z,99842.59
2023-01-04T23:11:12.148Z,99845.75
2023-01-04T23:13:38.477Z,99843.34
2023-01-04T23:16:05.624Z,99854.16
2023-01-04T23:18:31.997Z,99858.03
2023-01-04T23:20:58.302Z,99861.53
2023-01-04T23:23:24.661Z,99851.34
2023-01-04T23:25:51.048Z,99853.34
2023-01-04T23:28:17.409Z,99858.84
2023-01-04T23:30:44.093Z,99857.75
2023-01-04T23:33:10.389Z,99857.31
2023-01-04T23:35:36.701Z,99860.72
2023-01-04T23:38:03.013Z,99848.28
2023-01-04T23:40:29.369Z,99849.47
2023-01-04T23:42:59.613Z,99848.81
2023-01-04T23:45:26.132Z,99834.41
2023-01-04T23:47:52.471Z,99846.66
2023-01-04T23:50:18.888Z,99837.81
2023-01-04T23:52:45.206Z,99837.72
2023-01-04T23:55:11.547Z,99825.66
2023-01-04T23:57:37.870Z,99833.78
